Time,TemperatureF,DewpointF,PressureIn,WindDirection,WindDirectionDegrees,WindSpeedMPH,WindSpeedGustMPH,Humidity,HourlyPrecipIn,Conditions,Clouds,dailyrainin,SolarRadiationWatts/m^2,SoftwareType,DateUTC
2013-01-24 00:04:00,36.3,35.8,29.74,East,90,3.5,3.5,98,0.00,CLR,,0.00,0.0,WeatherDisplay:10.37,2013-01-23 23:04:00,
2013-01-24 00:09:00,36.3,35.8,29.74,East,90,3.5,3.5,98,0.00,CLR,,0.00,0.0,WeatherDisplay:10.37,2013-01-23 23:09:00,
2013-01-24 00:14:00,36.3,35.8,29.74,East,90,3.5,3.5,98,0.00,CLR,,0.00,0.0,WeatherDisplay:10.37,2013-01-23 23:14:00,
2013-01-24 00:19:00,36.3,35.8,29.74,East,90,2.3,0.0,98,0.00,CLR,,0.00,0.0,WeatherDisplay:10.37,2013-01-23 23:19:00,
2013-01-24 00:24:00,36.3,35.8,29.74,East,90,3.6,3.6,98,0.00,CLR,,0.00,0.0,WeatherDisplay:10.37,2013-01-23 23:24:00,
2013-01-24 00:29:00,36.3,35.8,29.74,ENE,68,4.6,4.6,98,0.00,CLR,,0.00,0.0,WeatherDisplay:10.37,2013-01-23 23:29:00,
2013-01-24 00:34:00,36.3,35.8,29.74,East,90,3.6,3.6,98,0.00,CLR,,0.00,0.0,WeatherDisplay:10.37,2013-01-23 23:34:00,
2013-01-24 00:39:00,36.3,35.8,29.74,ENE,68,2.4,2.4,98,0.00,CLR,,0.00,0.0,WeatherDisplay:10.37,2013-01-23 23:39:00,
2013-01-24 00:44:00,36.3,35.8,29.74,East,90,2.0,2.0,98,0.00,CLR,,0.00,0.0,WeatherDisplay:10.37,2013-01-23 23:44:00,
2013-01-24 00:49:00,36.3,35.8,29.74,East,90,2.3,2.3,98,0.00,CLR,,0.00,0.0,WeatherDisplay:10.37,2013-01-23 23:49:00,
2013-01-24 00:54:00,36.3,35.8,29.74,ENE,68,2.4,2.4,98,0.00,CLR,,0.00,0.0,WeatherDisplay:10.37,2013-01-23 23:54:00,
2013-01-24 00:59:00,36.3,35.8,29.74,ENE,68,2.3,2.3,98,0.00,CLR,,0.00,0.0,WeatherDisplay:10.37,2013-01-23 23:59:00,
2013-01-24 01:04:00,36.3,35.8,29.74,East,90,2.4,2.9,98,0.00,CLR,,0.00,0.0,WeatherDisplay:10.37,2013-01-24 00:04:00,
2013-01-24 01:09:00,36.3,35.8,29.74,ENE,68,2.3,2.3,98,0.00,CLR,,0.00,0.0,WeatherDisplay:10.37,2013-01-24 00:09:00,
2013-01-24 01:14:00,36.3,35.8,29.74,East,90,2.0,2.0,98,0.00,CLR,,0.00,0.0,WeatherDisplay:10.37,2013-01-24 00:14:00,
2013-01-24 01:19:00,36.3,35.8,29.74,ENE,68,2.3,2.3,98,0.00,CLR,,0.00,0.0,WeatherDisplay:10.37,2013-01-24 00:19:00,
2013-01-24 01:24:00,36.3,35.8,29.74,East,90,2.3,2.3,98,0.00,CLR,,0.00,0.0,WeatherDisplay:10.37,2013-01-24 00:24:00,
2013-01-24 01:29:00,36.3,35.8,29.74,East,90,0.0,0.0,98,0.00,CLR,,0.00,0.0,WeatherDisplay:10.37,2013-01-24 00:29:00,
2013-01-24 01:34:00,36.3,35.8,29.74,ENE,68,3.5,3.5,98,0.00,CLR,,0.00,0.0,WeatherDisplay:10.37,2013-01-24 00:34:00,
2013-01-24 01:39:00,36.3,35.8,29.74,East,90,1.1,1.1,98,0.00,CLR,,0.00,0.0,WeatherDisplay:10.37,2013-01-24 00:39:00,
2013-01-24 01:44:00,36.3,35.8,29.74,East,90,0.0,0.0,98,0.00,CLR,,0.00,0.0,WeatherDisplay:10.37,2013-01-24 00:44:00,
2013-01-24 01:49:00,36.3,35.8,29.74,NNE,22,2.6,2.6,98,0.00,CLR,,0.00,0.0,WeatherDisplay:10.37,2013-01-24 00:49:00,
2013-01-24 01:54:00,36.3,35.8,29.74,NE,45,3.5,3.5,98,0.00,CLR,,0.00,0.0,WeatherDisplay:10.37,2013-01-24 00:54:00,
2013-01-24 02:00:00,36.3,35.8,29.74,ENE,68,3.1,3.1,98,0.00,CLR,,0.00,0.0,WeatherDisplay:10.37,2013-01-24 01:00:00,
2013-01-24 02:05:00,36.3,35.8,29.74,ENE,68,0.0,0.0,98,0.00,CLR,,0.00,0.0,WeatherDisplay:10.37,2013-01-24 01:05:00,
2013-01-24 02:10:00,36.3,35.8,29.74,North,0,0.0,0.0,98,0.00,CLR,,0.00,0.0,WeatherDisplay:10.37,2013-01-24 01:10:00,
2013-01-24 02:15:00,36.1,35.6,29.74,North,0,0.0,0.0,98,0.00,CLR,,0.00,0.0,WeatherDisplay:10.37,2013-01-24 01:15:00,
2013-01-24 02:20:00,36.1,35.6,29.74,North,0,0.0,0.0,98,0.00,CLR,,0.00,0.0,WeatherDisplay:10.37,2013-01-24 01:20:00,
2013-01-24 02:25:00,36.1,35.6,29.74,North,0,1.1,1.1,98,0.00,CLR,,0.00,0.0,WeatherDisplay:10.37,2013-01-24 01:25:00,
2013-01-24 02:30:00,36.1,35.6,29.74,NNW,338,1.4,1.4,98,0.00,CLR,,0.00,0.0,WeatherDisplay:10.37,2013-01-24 01:30:00,
2013-01-24 02:35:00,36.1,35.6,29.74,NNW,338,0.0,0.0,98,0.00,CLR,,0.00,0.0,WeatherDisplay:10.37,2013-01-24 01:35:00,
2013-01-24 02:40:00,36.1,35.6,29.74,NE,45,2.6,2.6,98,0.00,CLR,,0.00,0.0,WeatherDisplay:10.37,2013-01-24 01:40:00,
2013-01-24 02:45:00,36.0,35.5,29.74,NNW,338,1.1,1.1,98,0.00,CLR,,0.00,0.0,WeatherDisplay:10.37,2013-01-24 01:45:00,
2013-01-24 02:50:00,36.0,35.5,29.74,NE,45,2.9,2.9,98,0.00,CLR,,0.00,0.0,WeatherDisplay:10.37,2013-01-24 01:50:00,
2013-01-24 02:55:00,36.0,35.5,29.74,NNE,22,3.5,3.5,98,0.00,CLR,,0.00,0.0,WeatherDisplay:10.37,2013-01-24 01:55:00,
2013-01-24 03:00:00,36.0,35.5,29.74,NE,45,3.5,3.5,98,0.00,CLR,,0.00,0.0,WeatherDisplay:10.37,2013-01-24 02:00:00,
2013-01-24 03:05:00,35.8,35.3,29.74,NE,35,1.0,3.0,98,0.00,CLR,CLR,0.00,0.0,WeatherDisplay:10.37,2013-01-24 02:05:00,
2013-01-24 03:10:00,35.8,35.3,29.74,ENE,68,2.4,2.4,98,0.00,CLR,,0.00,0.0,WeatherDisplay:10.37,2013-01-24 02:10:00,
2013-01-24 03:15:00,35.8,35.3,29.74,NNE,22,3.5,3.5,98,0.00,CLR,,0.00,0.0,WeatherDisplay:10.37,2013-01-24 02:15:00,
2013-01-24 03:20:00,35.8,35.3,29.74,ENE,68,2.9,2.9,98,0.00,CLR,,0.00,0.0,WeatherDisplay:10.37,2013-01-24 02:20:00,
2013-01-24 03:25:00,35.8,35.3,29.74,NE,42,1.0,3.0,98,0.00,CLR,CLR,0.00,0.0,WeatherDisplay:10.37,2013-01-24 02:25:00,
2013-01-24 03:30:00,35.8,35.3,29.74,NE,45,3.1,3.1,98,0.00,CLR,,0.00,0.0,WeatherDisplay:10.37,2013-01-24 02:30:00,
2013-01-24 03:35:00,35.8,35.3,29.74,NNE,28,1.0,3.0,98,0.00,CLR,CLR,0.00,0.0,WeatherDisplay:10.37,2013-01-24 02:35:00,
2013-01-24 03:40:00,35.8,35.3,29.74,NNE,28,0.0,2.0,98,0.00,CLR,CLR,0.00,0.0,WeatherDisplay:10.37,2013-01-24 02:40:00,
2013-01-24 03:45:00,35.8,35.3,29.74,NNE,21,0.0,3.0,98,0.00,CLR,CLR,0.00,0.0,WeatherDisplay:10.37,2013-01-24 02:45:00,
2013-01-24 03:50:00,35.6,35.1,29.74,NE,45,2.3,2.3,98,0.00,CLR,,0.00,0.0,WeatherDisplay:10.37,2013-01-24 02:50:00,
2013-01-24 03:55:00,35.6,35.1,29.74,NNE,22,3.5,3.5,98,0.00,CLR,,0.00,0.0,WeatherDisplay:10.37,2013-01-24 02:55:00,
2013-01-24 04:00:00,35.6,35.1,29.74,NNE,21,2.0,4.0,98,0.00,CLR,CLR,0.00,0.0,WeatherDisplay:10.37,2013-01-24 03:00:00,
2013-01-24 04:05:00,35.6,35.1,29.74,NNE,22,4.6,4.6,98,0.00,CLR,,0.00,0.0,WeatherDisplay:10.37,2013-01-24 03:05:00,
2013-01-24 04:10:00,35.6,35.1,29.74,North,0,3.5,3.5,98,0.00,CLR,,0.00,0.0,WeatherDisplay:10.37,2013-01-24 03:10:00,
2013-01-24 04:15:00,35.6,35.1,29.74,NNE,20,1.0,3.0,98,0.00,CLR,CLR,0.00,0.0,WeatherDisplay:10.37,2013-01-24 03:15:00,
2013-01-24 04:20:00,35.6,35.1,29.74,NE,45,0.0,0.0,98,0.00,CLR,,0.00,0.0,WeatherDisplay:10.37,2013-01-24 03:20:00,
2013-01-24 04:25:00,35.6,35.1,29.74,NNE,22,0.0,0.0,98,0.00,CLR,,0.00,0.0,WeatherDisplay:10.37,2013-01-24 03:25:00,
2013-01-24 04:30:00,35.6,35.1,29.74,NNE,15,1.0,3.0,98,0.00,CLR,CLR,0.00,0.0,WeatherDisplay:10.37,2013-01-24 03:30:00,
2013-01-24 04:35:00,35.6,35.1,29.74,NE,38,3.0,5.0,98,0.00,CLR,CLR,0.00,0.0,WeatherDisplay:10.37,2013-01-24 03:35:00,
2013-01-24 04:40:00,35.6,35.1,29.74,NE,46,2.0,5.0,98,0.00,CLR,CLR,0.00,0.0,WeatherDisplay:10.37,2013-01-24 03:40:00,
2013-01-24 04:45:00,35.6,35.1,29.74,NE,43,3.0,6.0,98,0.00,CLR,CLR,0.00,0.0,WeatherDisplay:10.37,2013-01-24 03:45:00,
2013-01-24 04:50:00,35.4,34.9,29.74,North,0,3.5,3.5,98,0.00,CLR,,0.00,0.0,WeatherDisplay:10.37,2013-01-24 03:50:00,
2013-01-24 04:55:00,35.4,34.9,29.74,NNE,22,2.0,6.0,98,0.00,CLR,CLR,0.00,0.0,WeatherDisplay:10.37,2013-01-24 03:55:00,
2013-01-24 05:00:00,35.4,34.9,29.77,NNE,23,2.0,3.0,98,0.00,CLR,CLR,0.00,0.0,WeatherDisplay:10.37,2013-01-24 04:00:00,
2013-01-24 05:05:00,35.2,34.7,29.77,North,0,3.5,3.5,98,0.00,CLR,,0.00,0.0,WeatherDisplay:10.37,2013-01-24 04:05:00,
2013-01-24 05:10:00,35.2,34.7,29.77,NNE,20,2.0,5.0,98,0.00,CLR,CLR,0.00,0.0,WeatherDisplay:10.37,2013-01-24 04:10:00,
2013-01-24 05:15:00,35.1,34.6,29.77,NNE,22,5.8,5.8,98,0.00,CLR,,0.00,0.0,WeatherDisplay:10.37,2013-01-24 04:15:00,
2013-01-24 05:20:00,35.1,34.6,29.77,NNE,22,5.8,5.8,98,0.00,CLR,,0.00,0.0,WeatherDisplay:10.37,2013-01-24 04:20:00,
2013-01-24 05:25:00,35.1,34.6,29.77,NNE,27,2.0,5.0,98,0.00,CLR,CLR,0.00,0.0,WeatherDisplay:10.37,2013-01-24 04:25:00,
2013-01-24 05:30:00,35.1,34.6,29.77,NE,45,3.5,3.5,98,0.00,CLR,,0.00,0.0,WeatherDisplay:10.37,2013-01-24 04:30:00,
2013-01-24 05:35:00,35.1,34.6,29.77,NNE,25,1.0,3.0,98,0.00,CLR,CLR,0.00,0.0,WeatherDisplay:10.37,2013-01-24 04:35:00,
2013-01-24 05:40:00,35.1,34.6,29.77,NNE,16,1.0,3.0,98,0.00,CLR,CLR,0.00,0.0,WeatherDisplay:10.37,2013-01-24 04:40:00,
2013-01-24 05:45:00,35.1,34.6,29.77,NNE,21,1.0,4.0,98,0.00,CLR,CLR,0.00,0.0,WeatherDisplay:10.37,2013-01-24 04:45:00,
2013-01-24 05:50:00,35.1,34.6,29.77,NNE,28,1.0,3.0,98,0.00,CLR,CLR,0.00,0.0,WeatherDisplay:10.37,2013-01-24 04:50:00,
2013-01-24 05:55:00,35.1,34.6,29.77,NNW,338,2.3,2.3,98,0.00,CLR,,0.00,0.0,WeatherDisplay:10.37,2013-01-24 04:55:00,
2013-01-24 06:00:00,35.1,34.6,29.77,NW,315,0.0,0.0,98,0.00,CLR,,0.00,0.0,WeatherDisplay:10.37,2013-01-24 05:00:00,
2013-01-24 06:01:00,35.1,34.6,29.77,NW,315,0.0,0.0,98,0.00,CLR,,0.00,0.0,WeatherDisplay:10.37,2013-01-24 05:01:00,
2013-01-24 06:03:00,35.1,34.6,29.77,NW,315,0.0,0.0,98,0.00,CLR,,0.00,0.0,WeatherDisplay:10.37,2013-01-24 05:03:00,
2013-01-24 06:08:00,35.1,34.6,29.77,NW,315,0.0,0.0,98,0.00,CLR,,0.00,0.0,WeatherDisplay:10.37,2013-01-24 05:08:00,
2013-01-24 06:13:00,34.9,34.4,29.77,ESE,112,4.6,4.6,98,0.00,CLR,,0.00,0.0,WeatherDisplay:10.37,2013-01-24 05:13:00,
2013-01-24 06:18:00,35.1,34.6,29.77,ENE,68,2.3,0.0,98,0.00,CLR,,0.00,0.0,WeatherDisplay:10.37,2013-01-24 05:18:00,
2013-01-24 06:23:00,35.1,34.6,29.77,ENE,68,1.1,2.0,98,0.00,CLR,,0.00,0.0,WeatherDisplay:10.37,2013-01-24 05:23:00,
2013-01-24 06:28:00,35.1,34.6,29.77,NNE,22,2.3,2.3,98,0.00,CLR,,0.00,0.0,WeatherDisplay:10.37,2013-01-24 05:28:00,
2013-01-24 06:33:00,35.1,34.6,29.77,NE,45,2.3,2.3,98,0.00,CLR,,0.00,0.0,WeatherDisplay:10.37,2013-01-24 05:33:00,
2013-01-24 06:38:00,35.1,34.6,29.77,East,90,4.6,4.6,98,0.00,CLR,,0.00,0.0,WeatherDisplay:10.37,2013-01-24 05:38:00,
2013-01-24 06:43:00,35.1,34.6,29.77,NE,45,2.3,2.3,98,0.00,CLR,,0.00,0.0,WeatherDisplay:10.37,2013-01-24 05:43:00,
2013-01-24 06:48:00,35.1,34.6,29.77,ENE,68,6.9,6.9,98,0.00,CLR,,0.00,0.0,WeatherDisplay:10.37,2013-01-24 05:48:00,
2013-01-24 06:53:00,35.1,34.6,29.77,East,90,5.8,5.8,98,0.00,CLR,,0.00,0.0,WeatherDisplay:10.37,2013-01-24 05:53:00,
2013-01-24 06:58:00,35.1,34.6,29.77,East,90,4.6,4.6,98,0.00,CLR,,0.00,0.0,WeatherDisplay:10.37,2013-01-24 05:58:00,
2013-01-24 07:03:00,35.1,34.6,29.77,NE,45,2.3,0.0,98,0.00,CLR,,0.00,0.0,WeatherDisplay:10.37,2013-01-24 06:03:00,
2013-01-24 07:08:00,35.1,34.6,29.77,ENE,68,3.5,3.5,98,0.00,CLR,,0.00,0.0,WeatherDisplay:10.37,2013-01-24 06:08:00,
2013-01-24 07:13:00,35.1,34.6,29.80,NE,45,2.3,2.3,98,0.00,CLR,,0.00,0.0,WeatherDisplay:10.37,2013-01-24 06:13:00,
2013-01-24 07:18:00,35.1,34.6,29.80,NE,45,3.1,3.1,98,0.00,CLR,,0.00,0.0,WeatherDisplay:10.37,2013-01-24 06:18:00,
2013-01-24 07:23:00,35.1,34.6,29.80,WNW,292,1.1,0.0,98,0.00,CLR,,0.00,0.0,WeatherDisplay:10.37,2013-01-24 06:23:00,
2013-01-24 07:28:00,35.1,34.6,29.80,North,0,3.8,3.8,98,0.00,CLR,,0.00,0.0,WeatherDisplay:10.37,2013-01-24 06:28:00,
2013-01-24 07:33:00,34.9,34.4,29.80,NNW,338,2.3,0.0,98,0.00,CLR,,0.00,0.0,WeatherDisplay:10.37,2013-01-24 06:33:00,
2013-01-24 07:38:00,34.9,34.4,29.80,North,0,2.3,2.3,98,0.00,CLR,,0.00,0.0,WeatherDisplay:10.37,2013-01-24 06:38:00,
2013-01-24 07:43:00,34.9,34.4,29.80,WNW,292,0.0,0.0,98,0.00,CLR,,0.00,0.0,WeatherDisplay:10.37,2013-01-24 06:43:00,
2013-01-24 07:48:00,34.9,34.4,29.80,NW,315,1.1,1.1,98,0.00,CLR,,0.00,0.0,WeatherDisplay:10.37,2013-01-24 06:48:00,
2013-01-24 07:53:00,34.9,34.4,29.80,NNW,338,3.5,3.5,98,0.00,CLR,,0.00,0.0,WeatherDisplay:10.37,2013-01-24 06:53:00,
2013-01-24 07:58:00,34.9,34.4,29.80,North,0,3.5,3.5,98,0.00,CLR,,0.00,0.0,WeatherDisplay:10.37,2013-01-24 06:58:00,
2013-01-24 08:03:00,34.9,34.4,29.80,NNW,338,1.1,0.0,98,0.00,CLR,,0.00,0.0,WeatherDisplay:10.37,2013-01-24 07:03:00,
2013-01-24 08:08:00,34.9,34.4,29.80,North,0,0.0,0.0,98,0.00,CLR,,0.00,0.0,WeatherDisplay:10.37,2013-01-24 07:08:00,
2013-01-24 08:13:00,34.9,34.4,29.80,ENE,68,5.8,5.8,98,0.00,CLR,,0.00,0.0,WeatherDisplay:10.37,2013-01-24 07:13:00,
2013-01-24 08:18:00,34.9,34.4,29.80,NNE,22,5.8,5.8,98,0.00,CLR,,0.00,0.0,WeatherDisplay:10.37,2013-01-24 07:18:00,
2013-01-24 08:23:00,34.9,34.4,29.80,NE,45,5.8,5.8,98,0.00,CLR,,0.00,0.0,WeatherDisplay:10.37,2013-01-24 07:23:00,
2013-01-24 08:28:00,34.9,34.4,29.77,NNE,22,3.5,3.5,98,0.00,CLR,,0.00,0.0,WeatherDisplay:10.37,2013-01-24 07:28:00,
2013-01-24 08:33:00,34.9,34.4,29.77,NE,45,4.6,4.6,98,0.00,CLR,,0.00,0.0,WeatherDisplay:10.37,2013-01-24 07:33:00,
2013-01-24 08:38:00,34.9,34.4,29.77,North,0,3.5,3.5,98,0.00,CLR,,0.00,0.0,WeatherDisplay:10.37,2013-01-24 07:38:00,
2013-01-24 08:43:00,34.9,34.4,29.80,NE,45,4.6,4.6,98,0.00,CLR,,0.00,0.0,WeatherDisplay:10.37,2013-01-24 07:43:00,
2013-01-24 08:48:00,34.9,34.4,29.80,NNE,22,3.5,3.5,98,0.00,CLR,,0.00,0.0,WeatherDisplay:10.37,2013-01-24 07:48:00,
2013-01-24 08:54:00,34.9,34.4,29.80,North,0,5.8,5.8,98,0.00,CLR,,0.00,0.0,WeatherDisplay:10.37,2013-01-24 07:54:00,
2013-01-24 08:59:00,35.1,34.6,29.80,NE,45,5.8,5.8,98,0.00,CLR,,0.00,0.0,WeatherDisplay:10.37,2013-01-24 07:59:00,
2013-01-24 09:04:00,35.1,34.6,29.80,NE,45,9.2,9.2,98,0.00,CLR,,0.00,0.0,WeatherDisplay:10.37,2013-01-24 08:04:00,
2013-01-24 09:09:00,35.1,34.6,29.80,NNE,22,12.7,12.7,98,0.00,CLR,,0.00,0.0,WeatherDisplay:10.37,2013-01-24 08:09:00,
2013-01-24 09:14:00,35.1,34.6,29.80,NNE,22,8.5,8.5,98,0.00,CLR,,0.00,0.0,WeatherDisplay:10.37,2013-01-24 08:14:00,
2013-01-24 09:19:00,35.1,34.6,29.80,NNW,338,9.2,9.2,98,0.00,CLR,,0.00,0.0,WeatherDisplay:10.37,2013-01-24 08:19:00,
2013-01-24 09:24:00,35.1,34.6,29.80,NE,45,5.8,5.8,98,0.00,CLR,,0.00,0.0,WeatherDisplay:10.37,2013-01-24 08:24:00,
2013-01-24 09:29:00,35.1,34.6,29.83,ENE,68,8.1,8.1,98,0.00,CLR,,0.00,0.0,WeatherDisplay:10.37,2013-01-24 08:29:00,
2013-01-24 09:34:00,35.1,34.6,29.83,NE,45,6.9,6.9,98,0.00,CLR,,0.00,0.0,WeatherDisplay:10.37,2013-01-24 08:34:00,
2013-01-24 09:39:00,35.1,34.6,29.83,NNE,22,9.2,9.2,98,0.00,CLR,,0.00,0.0,WeatherDisplay:10.37,2013-01-24 08:39:00,
2013-01-24 09:44:00,35.1,34.6,29.85,NNW,338,5.8,5.8,98,0.00,CLR,,0.00,0.0,WeatherDisplay:10.37,2013-01-24 08:44:00,
2013-01-24 09:49:00,35.1,34.6,29.85,NNE,22,8.1,8.1,98,0.00,CLR,,0.00,0.0,WeatherDisplay:10.37,2013-01-24 08:49:00,
2013-01-24 09:54:00,35.1,34.6,29.85,NNE,22,10.5,10.5,98,0.00,CLR,,0.00,0.0,WeatherDisplay:10.37,2013-01-24 08:54:00,
2013-01-24 09:59:00,35.1,34.6,29.85,ENE,68,13.8,13.8,98,0.00,CLR,,0.00,0.0,WeatherDisplay:10.37,2013-01-24 08:59:00,
2013-01-24 10:04:00,35.1,34.6,29.85,NNE,22,5.9,5.9,98,0.00,CLR,,0.00,0.0,WeatherDisplay:10.37,2013-01-24 09:04:00,
2013-01-24 10:09:00,35.1,34.6,29.85,North,0,9.2,9.2,98,0.00,CLR,,0.00,0.0,WeatherDisplay:10.37,2013-01-24 09:09:00,
2013-01-24 10:14:00,35.1,34.6,29.85,ENE,68,8.1,8.1,98,0.00,CLR,,0.00,0.0,WeatherDisplay:10.37,2013-01-24 09:14:00,
2013-01-24 10:19:00,35.1,34.6,29.85,NNE,22,8.1,8.1,98,0.00,CLR,,0.00,0.0,WeatherDisplay:10.37,2013-01-24 09:19:00,
2013-01-24 10:24:00,35.1,34.6,29.85,NE,45,11.5,11.5,98,0.00,CLR,,0.00,0.0,WeatherDisplay:10.37,2013-01-24 09:24:00,
2013-01-24 10:29:00,34.9,34.4,29.85,NNE,22,10.4,10.4,98,0.00,CLR,,0.00,0.0,WeatherDisplay:10.37,2013-01-24 09:29:00,
2013-01-24 10:34:00,34.9,34.4,29.85,NE,45,11.5,11.5,98,0.00,CLR,,0.00,0.0,WeatherDisplay:10.37,2013-01-24 09:34:00,
2013-01-24 10:39:00,34.9,34.4,29.85,NNE,22,9.2,9.2,98,0.00,CLR,,0.00,0.0,WeatherDisplay:10.37,2013-01-24 09:39:00,
2013-01-24 10:44:00,34.9,34.4,29.85,NNE,22,5.8,5.8,98,0.00,CLR,,0.00,0.0,WeatherDisplay:10.37,2013-01-24 09:44:00,
2013-01-24 10:49:00,34.9,34.4,29.85,North,0,8.1,8.1,98,0.00,CLR,,0.00,0.0,WeatherDisplay:10.37,2013-01-24 09:49:00,
2013-01-24 10:54:00,34.9,34.4,29.85,ENE,68,8.1,8.1,98,0.00,CLR,,0.00,0.0,WeatherDisplay:10.37,2013-01-24 09:54:00,
2013-01-24 10:59:00,34.9,34.4,29.85,ENE,68,10.4,10.4,98,0.00,CLR,,0.00,0.0,WeatherDisplay:10.37,2013-01-24 09:59:00,
2013-01-24 11:04:00,34.9,34.4,29.85,ENE,68,6.9,6.9,98,0.00,CLR,,0.00,0.0,WeatherDisplay:10.37,2013-01-24 10:04:00,
2013-01-24 11:09:00,35.1,34.6,29.85,NNE,22,5.8,5.8,98,0.00,CLR,,0.00,0.0,WeatherDisplay:10.37,2013-01-24 10:09:00,
2013-01-24 11:14:00,35.1,34.6,29.88,NNW,338,4.9,4.9,98,0.00,CLR,,0.00,0.0,WeatherDisplay:10.37,2013-01-24 10:14:00,
2013-01-24 11:19:00,35.1,34.6,29.88,ENE,68,5.8,5.8,98,0.00,CLR,,0.00,0.0,WeatherDisplay:10.37,2013-01-24 10:19:00,
2013-01-24 11:24:00,35.1,34.6,29.88,NNE,22,5.8,5.8,98,0.00,CLR,,0.00,0.0,WeatherDisplay:10.37,2013-01-24 10:24:00,
2013-01-24 11:29:00,35.2,34.7,29.88,NNE,22,7.1,7.1,98,0.00,CLR,,0.00,0.0,WeatherDisplay:10.37,2013-01-24 10:29:00,
2013-01-24 11:34:00,35.2,34.7,29.88,ENE,68,8.1,8.1,98,0.00,CLR,,0.00,0.0,WeatherDisplay:10.37,2013-01-24 10:34:00,
2013-01-24 11:39:00,35.2,34.7,29.88,NNE,22,8.5,8.5,98,0.00,CLR,,0.00,0.0,WeatherDisplay:10.37,2013-01-24 10:39:00,
2013-01-24 11:44:00,35.2,34.7,29.88,NE,45,5.8,5.8,98,0.00,CLR,,0.00,0.0,WeatherDisplay:10.37,2013-01-24 10:44:00,
2013-01-24 11:49:00,35.4,34.9,29.88,ENE,68,5.9,5.9,98,0.00,CLR,,0.00,0.0,WeatherDisplay:10.37,2013-01-24 10:49:00,
2013-01-24 11:54:00,35.4,34.9,29.88,North,0,8.1,8.1,98,0.00,CLR,,0.00,0.0,WeatherDisplay:10.37,2013-01-24 10:54:00,
2013-01-24 11:59:00,35.4,34.9,29.88,NNE,22,2.3,2.4,98,0.00,CLR,,0.00,0.0,WeatherDisplay:10.37,2013-01-24 10:59:00,
2013-01-24 12:04:00,35.4,34.9,29.88,NNW,338,6.9,6.9,98,0.00,CLR,,0.00,0.0,WeatherDisplay:10.37,2013-01-24 11:04:00,
2013-01-24 12:09:00,35.4,34.9,29.88,NNW,338,3.6,4.3,98,0.00,CLR,,0.00,0.0,WeatherDisplay:10.37,2013-01-24 11:09:00,
2013-01-24 12:14:00,35.4,34.7,29.91,NW,315,4.3,4.3,97,0.00,CLR,,0.00,0.0,WeatherDisplay:10.37,2013-01-24 11:14:00,
2013-01-24 12:19:00,35.4,34.7,29.91,ENE,68,6.4,6.4,97,0.00,CLR,,0.00,0.0,WeatherDisplay:10.37,2013-01-24 11:19:00,
2013-01-24 12:24:00,35.1,34.3,29.91,WNW,292,4.6,4.6,97,0.00,CLR,,0.00,0.0,WeatherDisplay:10.37,2013-01-24 11:24:00,
2013-01-24 12:29:00,35.1,34.0,29.91,ENE,68,3.5,3.5,96,0.00,CLR,,0.00,0.0,WeatherDisplay:10.37,2013-01-24 11:29:00,
2013-01-24 12:34:00,34.9,33.9,29.91,North,0,6.9,6.9,96,0.00,CLR,,0.00,0.0,WeatherDisplay:10.37,2013-01-24 11:34:00,
2013-01-24 12:39:00,34.9,33.9,29.91,NE,45,2.3,2.3,96,0.00,CLR,,0.00,0.0,WeatherDisplay:10.37,2013-01-24 11:39:00,
2013-01-24 12:44:00,34.7,33.7,29.91,WNW,292,5.8,5.8,96,0.00,CLR,,0.00,0.0,WeatherDisplay:10.37,2013-01-24 11:44:00,
2013-01-24 12:49:00,34.7,33.4,29.91,NNE,22,4.6,4.6,95,0.00,CLR,,0.00,0.0,WeatherDisplay:10.37,2013-01-24 11:49:00,
2013-01-24 12:54:00,34.5,33.2,29.91,WSW,248,6.9,6.9,95,0.00,CLR,,0.00,0.0,WeatherDisplay:10.37,2013-01-24 11:54:00,
2013-01-24 12:59:00,34.5,33.2,29.91,SSW,202,2.3,0.0,95,0.00,CLR,,0.00,0.0,WeatherDisplay:10.37,2013-01-24 11:59:00,
2013-01-24 13:04:00,34.5,33.2,29.91,NE,45,2.3,0.0,95,0.00,CLR,,0.00,0.0,WeatherDisplay:10.37,2013-01-24 12:04:00,
2013-01-24 13:10:00,34.5,33.5,29.91,NE,45,1.1,0.0,96,0.00,CLR,,0.00,0.0,WeatherDisplay:10.37,2013-01-24 12:10:00,
2013-01-24 13:15:00,34.3,33.3,29.91,North,0,4.6,4.6,96,0.00,CLR,,0.00,0.0,WeatherDisplay:10.37,2013-01-24 12:15:00,
2013-01-24 13:20:00,34.3,33.3,29.91,WNW,292,2.4,0.0,96,0.00,CLR,,0.00,0.0,WeatherDisplay:10.37,2013-01-24 12:20:00,
2013-01-24 13:25:00,34.3,33.3,29.91,WSW,248,2.3,2.3,96,0.00,CLR,,0.00,0.0,WeatherDisplay:10.37,2013-01-24 12:25:00,
2013-01-24 13:30:00,34.3,33.3,29.91,West,270,3.5,3.5,96,0.00,CLR,,0.00,0.0,WeatherDisplay:10.37,2013-01-24 12:30:00,
2013-01-24 13:35:00,34.3,33.3,29.91,North,0,3.5,3.5,96,0.00,CLR,,0.00,0.0,WeatherDisplay:10.37,2013-01-24 12:35:00,
2013-01-24 13:40:00,34.3,33.3,29.91,NNW,338,4.6,4.6,96,0.00,CLR,,0.00,0.0,WeatherDisplay:10.37,2013-01-24 12:40:00,
2013-01-24 13:45:00,34.3,33.3,29.91,NE,45,2.3,2.4,96,0.00,CLR,,0.00,0.0,WeatherDisplay:10.37,2013-01-24 12:45:00,
2013-01-24 13:50:00,34.3,33.3,29.91,WNW,292,3.5,3.5,96,0.00,CLR,,0.00,0.0,WeatherDisplay:10.37,2013-01-24 12:50:00,
2013-01-24 13:55:00,34.5,33.5,29.91,NNW,334,3.0,5.0,96,0.00,CLR,CLR,0.00,0.0,WeatherDisplay:10.37,2013-01-24 12:55:00,
2013-01-24 14:00:00,34.3,33.3,29.91,North,354,3.0,5.0,96,0.00,CLR,CLR,0.00,0.0,WeatherDisplay:10.37,2013-01-24 13:00:00,
2013-01-24 14:05:00,34.3,33.3,29.91,North,349,2.0,5.0,96,0.00,CLR,CLR,0.00,0.0,WeatherDisplay:10.37,2013-01-24 13:05:00,
2013-01-24 14:10:00,34.3,33.3,29.91,NNE,14,2.0,5.0,96,0.00,CLR,CLR,0.00,0.0,WeatherDisplay:10.37,2013-01-24 13:10:00,
2013-01-24 14:15:00,34.3,33.3,29.91,NE,45,5.8,5.8,96,0.00,CLR,,0.00,0.0,WeatherDisplay:10.37,2013-01-24 13:15:00,
2013-01-24 14:20:00,34.3,33.1,29.91,NNE,22,5.8,5.8,95,0.00,CLR,,0.00,0.0,WeatherDisplay:10.37,2013-01-24 13:20:00,
2013-01-24 14:25:00,34.2,32.6,29.91,North,5,3.0,6.0,94,0.00,CLR,CLR,0.00,0.0,WeatherDisplay:10.37,2013-01-24 13:25:00,
2013-01-24 14:30:00,34.0,32.2,29.91,NNE,16,6.0,7.0,93,0.00,CLR,CLR,0.00,0.0,WeatherDisplay:10.37,2013-01-24 13:30:00,
2013-01-24 14:35:00,34.0,32.2,29.91,ENE,68,5.8,5.8,93,0.00,CLR,,0.00,0.0,WeatherDisplay:10.37,2013-01-24 13:35:00,
2013-01-24 14:40:00,34.2,32.6,29.91,NNE,28,2.0,5.0,94,0.00,CLR,CLR,0.00,0.0,WeatherDisplay:10.37,2013-01-24 13:40:00,
2013-01-24 14:45:00,34.3,32.8,29.91,NE,45,4.3,4.3,94,0.00,CLR,,0.00,0.0,WeatherDisplay:10.37,2013-01-24 13:45:00,
2013-01-24 14:50:00,34.3,32.8,29.91,North,0,4.6,4.6,94,0.00,CLR,,0.00,0.0,WeatherDisplay:10.37,2013-01-24 13:50:00,
2013-01-24 14:55:00,34.3,32.8,29.91,North,358,3.0,5.0,94,0.00,CLR,CLR,0.00,0.0,WeatherDisplay:10.37,2013-01-24 13:55:00,
2013-01-24 15:00:00,34.5,33.0,29.91,North,0,3.5,3.5,94,0.00,CLR,,0.00,0.0,WeatherDisplay:10.37,2013-01-24 14:00:00,
2013-01-24 15:05:00,34.5,33.0,29.91,North,5,5.0,6.0,94,0.00,CLR,CLR,0.00,0.0,WeatherDisplay:10.37,2013-01-24 14:05:00,
2013-01-24 15:10:00,34.5,32.4,29.91,NNE,17,3.0,6.0,92,0.00,CLR,CLR,0.00,0.0,WeatherDisplay:10.37,2013-01-24 14:10:00,
2013-01-24 15:15:00,34.5,32.4,29.91,NE,45,5.4,5.4,92,0.00,CLR,,0.00,0.0,WeatherDisplay:10.37,2013-01-24 14:15:00,
2013-01-24 15:20:00,34.5,32.4,29.91,North,358,5.0,6.0,92,0.00,CLR,CLR,0.00,0.0,WeatherDisplay:10.37,2013-01-24 14:20:00,
2013-01-24 15:25:00,34.2,31.3,29.91,ENE,68,5.8,5.8,89,0.00,CLR,,0.00,0.0,WeatherDisplay:10.37,2013-01-24 14:25:00,
2013-01-24 15:30:00,34.2,31.3,29.91,North,0,4.7,4.7,89,0.00,CLR,,0.00,0.0,WeatherDisplay:10.37,2013-01-24 14:30:00,
2013-01-24 15:35:00,34.0,30.8,29.91,North,358,3.0,6.0,88,0.00,CLR,CLR,0.00,0.0,WeatherDisplay:10.37,2013-01-24 14:35:00,
2013-01-24 15:40:00,34.0,30.8,29.91,West,270,3.5,3.5,88,0.00,CLR,,0.00,0.0,WeatherDisplay:10.37,2013-01-24 14:40:00,
2013-01-24 15:45:00,33.8,30.6,29.94,North,3,3.0,7.0,88,0.00,CLR,CLR,0.00,0.0,WeatherDisplay:10.37,2013-01-24 14:45:00,
2013-01-24 15:50:00,33.8,30.6,29.94,North,5,1.0,5.0,88,0.00,CLR,CLR,0.00,0.0,WeatherDisplay:10.37,2013-01-24 14:50:00,
2013-01-24 15:55:00,33.8,30.9,29.94,NW,315,4.6,4.6,89,0.00,CLR,,0.00,0.0,WeatherDisplay:10.37,2013-01-24 14:55:00,
2013-01-24 16:00:00,33.8,30.9,29.94,NNW,338,4.6,4.6,89,0.00,CLR,,0.00,0.0,WeatherDisplay:10.37,2013-01-24 15:00:00,
2013-01-24 16:05:00,33.6,30.4,29.94,NNW,331,3.0,6.0,88,0.00,CLR,CLR,0.00,0.0,WeatherDisplay:10.37,2013-01-24 15:05:00,
2013-01-24 16:10:00,33.4,30.3,29.94,WNW,292,5.8,5.8,88,0.00,CLR,,0.00,0.0,WeatherDisplay:10.37,2013-01-24 15:10:00,
2013-01-24 16:15:00,33.4,30.3,29.97,NW,321,2.0,6.0,88,0.00,CLR,CLR,0.00,0.0,WeatherDisplay:10.37,2013-01-24 15:15:00,
2013-01-24 16:20:00,33.4,30.3,29.97,North,352,2.0,4.0,88,0.00,CLR,CLR,0.00,0.0,WeatherDisplay:10.37,2013-01-24 15:20:00,
2013-01-24 16:25:00,33.4,30.3,29.97,NNW,338,5.8,5.8,88,0.00,CLR,,0.00,0.0,WeatherDisplay:10.37,2013-01-24 15:25:00,
2013-01-24 16:30:00,33.3,29.5,29.97,NE,45,6.9,6.9,86,0.00,CLR,,0.00,0.0,WeatherDisplay:10.37,2013-01-24 15:30:00,
2013-01-24 16:35:00,33.2,28.9,29.97,NE,37,5.0,7.0,84,0.00,CLR,CLR,0.00,0.0,WeatherDisplay:10.37,2013-01-24 15:35:00,
2013-01-24 16:40:00,33.3,28.7,29.97,NNE,22,8.1,8.1,83,0.00,CLR,,0.00,0.0,WeatherDisplay:10.37,2013-01-24 15:40:00,
2013-01-24 16:45:00,33.3,28.9,29.97,NNE,26,3.0,7.0,84,0.00,CLR,CLR,0.00,0.0,WeatherDisplay:10.37,2013-01-24 15:45:00,
2013-01-24 16:50:00,33.3,29.2,29.97,NNW,338,3.5,3.5,85,0.00,CLR,,0.00,0.0,WeatherDisplay:10.37,2013-01-24 15:50:00,
2013-01-24 16:55:00,33.1,28.8,29.97,NE,45,8.1,8.1,84,0.00,CLR,,0.00,0.0,WeatherDisplay:10.37,2013-01-24 15:55:00,
2013-01-24 17:00:00,33.0,28.1,29.97,NNE,12,3.0,6.0,82,0.00,CLR,CLR,0.00,0.0,WeatherDisplay:10.37,2013-01-24 16:00:00,
2013-01-24 17:05:00,32.7,27.8,29.97,NNW,338,2.3,2.3,82,0.00,CLR,,0.00,0.0,WeatherDisplay:10.37,2013-01-24 16:05:00,
2013-01-24 17:10:00,32.5,27.7,29.97,NNE,22,6.9,6.9,82,0.00,CLR,,0.00,0.0,WeatherDisplay:10.37,2013-01-24 16:10:00,
2013-01-24 17:15:00,32.4,27.2,29.97,North,10,3.0,5.0,81,0.00,CLR,CLR,0.00,0.0,WeatherDisplay:10.37,2013-01-24 16:15:00,
2013-01-24 17:20:00,32.0,26.5,29.97,NNW,338,5.8,5.8,80,0.00,CLR,,0.00,0.0,WeatherDisplay:10.37,2013-01-24 16:20:00,
2013-01-24 17:25:00,31.8,26.4,29.97,NNW,338,4.6,4.6,80,0.00,CLR,,0.00,0.0,WeatherDisplay:10.37,2013-01-24 16:25:00,
2013-01-24 17:30:00,31.5,26.0,29.97,NNW,346,3.0,7.0,80,0.00,CLR,CLR,0.00,0.0,WeatherDisplay:10.37,2013-01-24 16:30:00,
2013-01-24 17:35:00,31.1,25.7,29.97,NNW,338,4.3,4.3,80,0.00,CLR,,0.00,0.0,WeatherDisplay:10.37,2013-01-24 16:35:00,
2013-01-24 17:40:00,30.9,25.5,29.97,NNW,335,5.0,6.0,80,0.00,CLR,CLR,0.00,0.0,WeatherDisplay:10.37,2013-01-24 16:40:00,
2013-01-24 17:45:00,30.7,25.3,30.00,NW,315,5.8,5.8,80,0.00,CLR,,0.00,0.0,WeatherDisplay:10.37,2013-01-24 16:45:00,
2013-01-24 17:50:00,30.4,24.9,30.00,WNW,292,5.8,5.8,80,0.00,CLR,,0.00,0.0,WeatherDisplay:10.37,2013-01-24 16:50:00,
2013-01-24 17:55:00,30.2,24.8,30.00,NW,316,3.0,5.0,80,0.00,CLR,CLR,0.00,0.0,WeatherDisplay:10.37,2013-01-24 16:55:00,
2013-01-24 18:00:00,29.8,24.4,30.00,NW,315,5.8,5.8,80,0.00,CLR,,0.00,0.0,WeatherDisplay:10.37,2013-01-24 17:00:00,
2013-01-24 18:05:00,29.8,24.7,30.00,NNW,338,4.6,4.6,81,0.00,CLR,,0.00,0.0,WeatherDisplay:10.37,2013-01-24 17:05:00,
2013-01-24 18:10:00,29.5,24.4,30.00,NNW,331,6.0,9.0,81,0.00,CLR,CLR,0.00,0.0,WeatherDisplay:10.37,2013-01-24 17:10:00,
2013-01-24 18:15:00,29.5,24.1,30.00,NW,315,4.6,4.6,80,0.00,CLR,,0.00,0.0,WeatherDisplay:10.37,2013-01-24 17:15:00,
2013-01-24 18:20:00,29.3,24.2,30.00,NNW,338,5.9,5.9,81,0.00,CLR,,0.00,0.0,WeatherDisplay:10.37,2013-01-24 17:20:00,
2013-01-24 18:25:00,29.3,24.2,30.00,NW,307,3.0,6.0,81,0.00,CLR,CLR,0.00,0.0,WeatherDisplay:10.37,2013-01-24 17:25:00,
2013-01-24 18:30:00,29.1,24.3,30.00,NNW,338,4.6,4.6,82,0.00,CLR,,0.00,0.0,WeatherDisplay:10.37,2013-01-24 17:30:00,
2013-01-24 18:35:00,28.9,24.1,30.00,NNW,345,1.0,5.0,82,0.00,CLR,CLR,0.00,0.0,WeatherDisplay:10.37,2013-01-24 17:35:00,
2013-01-24 18:40:00,28.9,24.1,30.00,NNW,327,2.0,5.0,82,0.00,CLR,CLR,0.00,0.0,WeatherDisplay:10.37,2013-01-24 17:40:00,
2013-01-24 18:45:00,28.6,23.8,30.03,NNW,338,9.2,9.2,82,0.00,CLR,,0.00,0.0,WeatherDisplay:10.37,2013-01-24 17:45:00,
2013-01-24 18:50:00,28.6,23.5,30.03,NW,305,3.0,7.0,81,0.00,CLR,CLR,0.00,0.0,WeatherDisplay:10.37,2013-01-24 17:50:00,
2013-01-24 18:55:00,28.6,23.5,30.03,NW,311,3.0,6.0,81,0.00,CLR,CLR,0.00,0.0,WeatherDisplay:10.37,2013-01-24 17:55:00,
2013-01-24 19:00:00,28.4,23.3,30.03,WNW,292,5.8,5.8,81,0.00,CLR,,0.00,0.0,WeatherDisplay:10.37,2013-01-24 18:00:00,
2013-01-24 19:05:00,28.4,23.3,30.03,NW,320,2.0,6.0,81,0.00,CLR,CLR,0.00,0.0,WeatherDisplay:10.37,2013-01-24 18:05:00,
2013-01-24 19:10:00,28.4,23.6,30.03,WNW,292,5.8,5.8,82,0.00,CLR,,0.00,0.0,WeatherDisplay:10.37,2013-01-24 18:10:00,
2013-01-24 19:15:00,28.4,23.6,30.03,NNW,328,2.0,5.0,82,0.00,CLR,CLR,0.00,0.0,WeatherDisplay:10.37,2013-01-24 18:15:00,
2013-01-24 19:20:00,28.4,23.6,30.03,NNW,341,2.0,6.0,82,0.00,CLR,CLR,0.00,0.0,WeatherDisplay:10.37,2013-01-24 18:20:00,
2013-01-24 19:25:00,28.2,23.4,30.03,NNE,22,7.8,7.8,82,0.00,CLR,,0.00,0.0,WeatherDisplay:10.37,2013-01-24 18:25:00,
2013-01-24 19:30:00,28.2,23.4,30.03,NE,45,3.5,3.5,82,0.00,CLR,,0.00,0.0,WeatherDisplay:10.37,2013-01-24 18:30:00,
2013-01-24 19:35:00,28.2,23.1,30.03,North,10,7.0,11.0,81,0.00,CLR,CLR,0.00,0.0,WeatherDisplay:10.37,2013-01-24 18:35:00,
2013-01-24 19:40:00,28.0,23.0,30.03,WNW,292,4.6,4.6,81,0.00,CLR,,0.00,0.0,WeatherDisplay:10.37,2013-01-24 18:40:00,
2013-01-24 19:45:00,28.0,23.3,30.03,North,0,8.1,8.1,82,0.00,CLR,,0.00,0.0,WeatherDisplay:10.37,2013-01-24 18:45:00,
2013-01-24 19:50:00,28.0,23.3,30.03,NE,45,10.4,10.4,82,0.00,CLR,,0.00,0.0,WeatherDisplay:10.37,2013-01-24 18:50:00,
2013-01-24 19:55:00,27.9,22.8,30.03,North,0,5.8,5.8,81,0.00,CLR,,0.00,0.0,WeatherDisplay:10.37,2013-01-24 18:55:00,
2013-01-24 20:00:00,27.9,23.1,30.03,NNE,15,6.0,10.0,82,0.00,CLR,CLR,0.00,0.0,WeatherDisplay:10.37,2013-01-24 19:00:00,
2013-01-24 20:05:00,27.9,22.8,30.03,ENE,68,5.8,5.8,81,0.00,CLR,,0.00,0.0,WeatherDisplay:10.37,2013-01-24 19:05:00,
2013-01-24 20:10:00,27.9,23.1,30.03,NNE,25,3.0,7.0,82,0.00,CLR,CLR,0.00,0.0,WeatherDisplay:10.37,2013-01-24 19:10:00,
2013-01-24 20:15:00,27.9,23.1,30.03,NNE,14,2.0,6.0,82,0.00,CLR,CLR,0.00,0.0,WeatherDisplay:10.37,2013-01-24 19:15:00,
2013-01-24 20:20:00,27.7,22.9,30.03,NNE,22,6.2,6.2,82,0.00,CLR,,0.00,0.0,WeatherDisplay:10.37,2013-01-24 19:20:00,
2013-01-24 20:25:00,27.9,23.1,30.03,North,0,4.6,4.6,82,0.00,CLR,,0.00,0.0,WeatherDisplay:10.37,2013-01-24 19:25:00,
2013-01-24 20:30:00,27.9,23.4,30.06,North,9,3.0,6.0,83,0.00,CLR,CLR,0.00,0.0,WeatherDisplay:10.37,2013-01-24 19:30:00,
2013-01-24 20:35:00,27.9,23.4,30.06,NNW,348,3.0,6.0,83,0.00,CLR,CLR,0.00,0.0,WeatherDisplay:10.37,2013-01-24 19:35:00,
2013-01-24 20:40:00,27.9,23.4,30.06,NNW,337,2.0,7.0,83,0.00,CLR,CLR,0.00,0.0,WeatherDisplay:10.37,2013-01-24 19:40:00,
2013-01-24 20:45:00,27.9,23.1,30.09,North,6,5.0,6.0,82,0.00,CLR,CLR,0.00,0.0,WeatherDisplay:10.37,2013-01-24 19:45:00,
2013-01-24 20:50:00,27.9,23.1,30.09,NW,315,4.6,4.6,82,0.00,CLR,,0.00,0.0,WeatherDisplay:10.37,2013-01-24 19:50:00,
2013-01-24 20:55:00,28.0,23.3,30.09,NW,323,3.0,6.0,82,0.00,CLR,CLR,0.00,0.0,WeatherDisplay:10.37,2013-01-24 19:55:00,
2013-01-24 21:00:00,28.0,23.3,30.09,NNW,330,5.0,7.0,82,0.00,CLR,CLR,0.00,0.0,WeatherDisplay:10.37,2013-01-24 20:00:00,
2013-01-24 21:05:00,28.0,23.0,30.09,NNE,22,9.2,9.2,81,0.00,CLR,,0.00,0.0,WeatherDisplay:10.37,2013-01-24 20:05:00,
2013-01-24 21:10:00,28.0,23.0,30.09,North,1,5.0,7.0,81,0.00,CLR,CLR,0.00,0.0,WeatherDisplay:10.37,2013-01-24 20:10:00,
2013-01-24 21:15:00,28.0,23.0,30.09,NE,45,5.8,5.8,81,0.00,CLR,,0.00,0.0,WeatherDisplay:10.37,2013-01-24 20:15:00,
2013-01-24 21:20:00,27.9,22.8,30.09,NNE,22,8.5,8.5,81,0.00,CLR,,0.00,0.0,WeatherDisplay:10.37,2013-01-24 20:20:00,
2013-01-24 21:25:00,27.9,22.5,30.09,NE,45,3.0,9.0,80,0.00,CLR,CLR,0.00,0.0,WeatherDisplay:10.37,2013-01-24 20:25:00,
2013-01-24 21:30:00,27.9,22.8,30.09,North,0,7.1,7.1,81,0.00,CLR,,0.00,0.0,WeatherDisplay:10.37,2013-01-24 20:30:00,
2013-01-24 21:35:00,27.7,22.6,30.09,NNE,27,5.0,7.0,81,0.00,CLR,CLR,0.00,0.0,WeatherDisplay:10.37,2013-01-24 20:35:00,
2013-01-24 21:40:00,27.7,22.3,30.09,NE,45,7.1,7.1,80,0.00,CLR,,0.00,0.0,WeatherDisplay:10.37,2013-01-24 20:40:00,
2013-01-24 21:45:00,27.3,22.0,30.09,NNE,29,6.0,9.0,80,0.00,CLR,CLR,0.00,0.0,WeatherDisplay:10.37,2013-01-24 20:45:00,
2013-01-24 21:50:00,27.3,22.0,30.09,NNE,22,5.8,5.8,80,0.00,CLR,,0.00,0.0,WeatherDisplay:10.37,2013-01-24 20:50:00,
2013-01-24 21:55:00,27.3,22.0,30.09,NNE,32,7.0,8.0,80,0.00,CLR,CLR,0.00,0.0,WeatherDisplay:10.37,2013-01-24 20:55:00,
2013-01-24 22:00:00,27.1,21.8,30.09,NE,45,8.1,8.1,80,0.00,CLR,,0.00,0.0,WeatherDisplay:10.37,2013-01-24 21:00:00,
2013-01-24 22:05:00,27.1,21.7,30.09,NE,34,3.0,7.0,80,0.00,CLR,CLR,0.00,0.0,WeatherDisplay:10.37,2013-01-24 21:05:00,
2013-01-24 22:10:00,27.1,22.1,30.09,NNE,22,3.5,3.6,81,0.00,CLR,,0.00,0.0,WeatherDisplay:10.37,2013-01-24 21:10:00,
2013-01-24 22:15:00,27.1,22.1,30.09,East,90,6.9,6.9,81,0.00,CLR,,0.00,0.0,WeatherDisplay:10.37,2013-01-24 21:15:00,
2013-01-24 22:20:00,27.0,21.9,30.09,NE,56,6.0,8.0,81,0.00,CLR,CLR,0.00,0.0,WeatherDisplay:10.37,2013-01-24 21:20:00,
2013-01-24 22:25:00,26.8,21.7,30.09,NE,55,5.0,8.0,81,0.00,CLR,CLR,0.00,0.0,WeatherDisplay:10.37,2013-01-24 21:25:00,
2013-01-24 22:30:00,26.8,21.7,30.09,NNE,22,4.6,4.6,81,0.00,CLR,,0.00,0.0,WeatherDisplay:10.37,2013-01-24 21:30:00,
2013-01-24 22:35:00,27.0,22.2,30.09,NE,40,3.0,6.0,82,0.00,CLR,CLR,0.00,0.0,WeatherDisplay:10.37,2013-01-24 21:35:00,
2013-01-24 22:40:00,26.6,21.8,30.09,NNE,22,7.8,7.8,82,0.00,CLR,,0.00,0.0,WeatherDisplay:10.37,2013-01-24 21:40:00,
2013-01-24 22:45:00,26.6,21.8,30.06,NE,45,5.8,5.8,82,0.00,CLR,,0.00,0.0,WeatherDisplay:10.37,2013-01-24 21:45:00,
2013-01-24 22:50:00,26.6,22.1,30.06,NE,53,3.0,6.0,83,0.00,CLR,CLR,0.00,0.0,WeatherDisplay:10.37,2013-01-24 21:50:00,
2013-01-24 22:55:00,26.8,22.3,30.06,ENE,66,5.0,6.0,83,0.00,CLR,CLR,0.00,0.0,WeatherDisplay:10.37,2013-01-24 21:55:00,
2013-01-24 23:00:00,26.6,22.4,30.09,North,0,6.9,6.9,84,0.00,CLR,,0.00,0.0,WeatherDisplay:10.37,2013-01-24 22:00:00,
2013-01-24 23:05:00,26.6,22.4,30.09,NE,34,3.0,6.0,84,0.00,CLR,CLR,0.00,0.0,WeatherDisplay:10.37,2013-01-24 22:05:00,
2013-01-24 23:10:00,26.6,22.4,30.09,NE,45,5.8,5.8,84,0.00,CLR,,0.00,0.0,WeatherDisplay:10.37,2013-01-24 22:10:00,
2013-01-24 23:15:00,26.6,22.4,30.09,East,90,3.5,3.5,84,0.00,CLR,,0.00,0.0,WeatherDisplay:10.37,2013-01-24 22:15:00,
2013-01-24 23:20:00,26.8,22.6,30.09,ENE,68,6.4,6.4,84,0.00,CLR,,0.00,0.0,WeatherDisplay:10.37,2013-01-24 22:20:00,
2013-01-24 23:25:00,26.6,22.7,30.09,NE,53,5.0,7.0,85,0.00,CLR,CLR,0.00,0.0,WeatherDisplay:10.37,2013-01-24 22:25:00,
2013-01-24 23:30:00,26.8,22.9,30.09,NE,45,5.8,5.8,85,0.00,CLR,,0.00,0.0,WeatherDisplay:10.37,2013-01-24 22:30:00,